createdAt,value
2023-04-09T00:00:17.949Z,101010.72
2023-04-09T00:02:45.090Z,101000.63
2023-04-09T00:05:12.259Z,101004.63
2023-04-09T00:07:39.278Z,101000.78
2023-04-09T00:10:07.510Z,100993.69
2023-04-09T00:12:34.611Z,101002.44
2023-04-09T00:15:01.651Z,100996.22
2023-04-09T00:17:28.672Z,100995.28
2023-04-09T00:19:56.221Z,100990.03
2023-04-09T00:22:23.347Z,100997.03
2023-04-09T00:24:50.421Z,100991.63
2023-04-09T00:27:17.490Z,100995.56
2023-04-09T00:29:44.571Z,100995.63
2023-04-09T00:32:11.574Z,101001.41
2023-04-09T00:34:38.904Z,100998.84
2023-04-09T00:37:06.397Z,100999.81
2023-04-09T00:39:33.453Z,100982.88
2023-04-09T00:42:04.171Z,100978.78
2023-04-09T00:44:31.296Z,100978.50
2023-04-09T00:47:02.673Z,100987.38
2023-04-09T00:49:29.906Z,100989.81
2023-04-09T00:51:57.128Z,100997.34
2023-04-09T00:54:24.109Z,100990.03
2023-04-09T00:56:52.020Z,100985.09
2023-04-09T00:59:19.690Z,100982.50
2023-04-09T01:01:46.726Z,100988.59
2023-04-09T01:04:13.904Z,100980.06
2023-04-09T01:06:51.983Z,100992.56
2023-04-09T01:09:35.501Z,100994.38
2023-04-09T01:12:35.936Z,100989.66
2023-04-09T01:15:08.714Z,100985.81
2023-04-09T01:18:07.708Z,100977.63
2023-04-09T01:20:48.071Z,100989.13
2023-04-09T01:23:29.591Z,100995.22
2023-04-09T01:26:15.018Z,100991.75
2023-04-09T01:28:49.128Z,101000.06
2023-04-09T01:31:20.279Z,100997.94
2023-04-09T01:33:47.683Z,100990.81
2023-04-09T01:36:15.466Z,100996.19
2023-04-09T01:38:43.523Z,100994.16
2023-04-09T01:41:17.290Z,100985.97
2023-04-09T01:43:45.512Z,101003.88
2023-04-09T01:46:13.783Z,101000.25
2023-04-09T01:48:41.249Z,100991.47
2023-04-09T01:51:08.290Z,100994.50
2023-04-09T01:53:36.288Z,100990.38
2023-04-09T01:56:03.759Z,100989.44
2023-04-09T01:58:30.872Z,101005.38
2023-04-09T02:01:14.584Z,100999.06
2023-04-09T02:03:49.135Z,101000.59
2023-04-09T02:06:43.046Z,101006.84
2023-04-09T02:09:11.375Z,101011.91
2023-04-09T02:11:41.740Z,101004.88
2023-04-09T02:14:11.377Z,101014.13
2023-04-09T02:16:39.995Z,100999.81
2023-04-09T02:19:07.005Z,101009.53
2023-04-09T02:21:34.378Z,101003.34
2023-04-09T02:24:01.366Z,101003.78
2023-04-09T02:26:28.430Z,101010.41
2023-04-09T02:28:55.463Z,101012.00
2023-04-09T02:31:22.451Z,101013.72
2023-04-09T02:33:49.490Z,101008.56
2023-04-09T02:36:16.595Z,101007.56
2023-04-09T02:38:43.753Z,101015.19
2023-04-09T02:41:10.897Z,101012.56
2023-04-09T02:43:38.032Z,101019.59
2023-04-09T02:46:05.358Z,101015.03
2023-04-09T02:48:32.760Z,101015.25
2023-04-09T02:50:59.777Z,101015.97
2023-04-09T02:53:27.076Z,101016.03
2023-04-09T02:55:54.116Z,101009.09
2023-04-09T02:58:21.141Z,101006.75
2023-04-09T03:00:48.160Z,100999.97
2023-04-09T03:03:15.539Z,101002.84
2023-04-09T03:05:42.705Z,100994.50
2023-04-09T03:08:09.720Z,100999.59
2023-04-09T03:10:36.754Z,101005.38
2023-04-09T03:13:03.752Z,101004.59
2023-04-09T03:15:30.770Z,101010.91
2023-04-09T03:17:57.784Z,101004.44
2023-04-09T03:20:24.884Z,101001.31
2023-04-09T03:22:51.866Z,100999.53
2023-04-09T03:25:20.675Z,101007.81
2023-04-09T03:27:47.813Z,101002.28
2023-04-09T03:30:14.794Z,101005.78
2023-04-09T03:32:41.875Z,101005.84
2023-04-09T03:35:09.212Z,101003.75
2023-04-09T03:37:36.235Z,101005.03
2023-04-09T03:40:04.007Z,100992.94
2023-04-09T03:42:31.457Z,101000.31
2023-04-09T03:44:58.461Z,100998.78
2023-04-09T03:47:25.610Z,100992.19
2023-04-09T03:49:52.722Z,100998.75
2023-04-09T03:52:19.774Z,100998.63
2023-04-09T03:54:46.787Z,100997.41
2023-04-09T03:57:13.826Z,100998.34
2023-04-09T03:59:40.804Z,101005.53
2023-04-09T04:02:07.838Z,101005.94
2023-04-09T04:04:34.979Z,100994.34
2023-04-09T04:07:03.989Z,101006.06
2023-04-09T04:09:31.077Z,100989.91
2023-04-09T04:11:58.953Z,100985.00
2023-04-09T04:14:26.010Z,100993.34
2023-04-09T04:16:52.995Z,100988.22
2023-04-09T04:19:19.959Z,100992.59
2023-04-09T04:21:47.084Z,101003.91
2023-04-09T04:24:14.038Z,100989.38
2023-04-09T04:26:41.063Z,100989.16
2023-04-09T04:29:08.140Z,100990.25
2023-04-09T04:31:35.201Z,100993.91
2023-04-09T04:34:02.241Z,101000.84
2023-04-09T04:36:29.327Z,101000.53
2023-04-09T04:38:56.282Z,100997.66
2023-04-09T04:41:23.395Z,100996.47
2023-04-09T04:43:50.408Z,100998.41
2023-04-09T04:46:17.495Z,101001.34
2023-04-09T04:48:44.579Z,100999.31
2023-04-09T04:51:11.567Z,101014.16
2023-04-09T04:53:38.654Z,101008.13
2023-04-09T04:56:05.962Z,101020.94
2023-04-09T04:58:32.924Z,101021.78
2023-04-09T05:01:00.686Z,101025.28
2023-04-09T05:03:27.836Z,101029.31
2023-04-09T05:05:55.023Z,101024.16
2023-04-09T05:08:22.043Z,101025.13
2023-04-09T05:10:49.070Z,101032.66
2023-04-09T05:13:16.054Z,101033.00
2023-04-09T05:15:43.167Z,101028.88
2023-04-09T05:18:10.444Z,101025.03
2023-04-09T05:20:37.450Z,101024.81
2023-04-09T05:23:04.566Z,101026.28
2023-04-09T05:25:31.689Z,101038.13
2023-04-09T05:27:58.660Z,101027.84
2023-04-09T05:30:25.943Z,101034.84
2023-04-09T05:32:52.972Z,101040.47
2023-04-09T05:35:20.466Z,101032.56
2023-04-09T05:37:47.474Z,101033.63
2023-04-09T05:40:15.008Z,101038.00
2023-04-09T05:42:42.085Z,101037.53
2023-04-09T05:45:09.988Z,101043.81
2023-04-09T05:47:37.141Z,101040.03
2023-04-09T05:50:04.670Z,101042.72
2023-04-09T05:52:32.195Z,101041.44
2023-04-09T05:54:59.266Z,101037.03
2023-04-09T05:57:26.286Z,101046.44
2023-04-09T05:59:53.476Z,101049.91
2023-04-09T06:02:20.667Z,101048.44
2023-04-09T06:04:47.929Z,101052.13
2023-04-09T06:07:15.010Z,101049.28
2023-04-09T06:09:44.198Z,101051.28
2023-04-09T06:12:11.408Z,101055.34
2023-04-09T06:14:38.405Z,101053.28
2023-04-09T06:17:05.602Z,101047.75
2023-04-09T06:19:32.618Z,101049.25
2023-04-09T06:21:59.756Z,101051.81
2023-04-09T06:24:27.182Z,101063.25
2023-04-09T06:26:54.174Z,101057.66
2023-04-09T06:29:23.164Z,101060.47
2023-04-09T06:31:51.503Z,101064.53
2023-04-09T06:34:18.498Z,101069.66
2023-04-09T06:36:45.949Z,101065.72
2023-04-09T06:39:12.944Z,101061.47
2023-04-09T06:41:39.952Z,101065.53
2023-04-09T06:44:07.140Z,101079.75
2023-04-09T06:46:34.194Z,101081.00
2023-04-09T06:49:01.178Z,101074.06
2023-04-09T06:51:28.305Z,101078.09
2023-04-09T06:53:55.570Z,101087.59
2023-04-09T06:56:22.836Z,101081.13
2023-04-09T06:58:49.836Z,101091.56
2023-04-09T07:01:17.514Z,101088.22
2023-04-09T07:03:44.931Z,101091.53
2023-04-09T07:06:12.139Z,101086.59
2023-04-09T07:08:39.182Z,101092.09
2023-04-09T07:11:06.256Z,101095.44
2023-04-09T07:13:33.500Z,101089.53
2023-04-09T07:16:00.794Z,101095.84
2023-04-09T07:18:27.903Z,101096.78
2023-04-09T07:20:55.311Z,101096.56
2023-04-09T07:23:22.944Z,101081.56
2023-04-09T07:25:50.024Z,101091.81
2023-04-09T07:28:17.048Z,101096.72
2023-04-09T07:30:44.108Z,101089.91
2023-04-09T07:33:11.357Z,101087.97
2023-04-09T07:35:38.434Z,101089.75
2023-04-09T07:38:05.410Z,101090.31
2023-04-09T07:40:34.636Z,101092.22
2023-04-09T07:43:01.678Z,101089.38
2023-04-09T07:45:28.744Z,101096.72
2023-04-09T07:47:56.030Z,101097.81
2023-04-09T07:50:23.111Z,101084.22
2023-04-09T07:52:50.095Z,101099.44
2023-04-09T07:55:18.525Z,101100.06
2023-04-09T07:57:45.913Z,101087.09
2023-04-09T08:00:13.517Z,101095.09
2023-04-09T08:02:40.908Z,101090.94
2023-04-09T08:05:08.764Z,101081.69
2023-04-09T08:07:36.896Z,101087.81
2023-04-09T08:10:04.873Z,101097.97
2023-04-09T08:12:31.932Z,101098.75
2023-04-09T08:14:58.953Z,101088.75
2023-04-09T08:17:25.930Z,101082.78
2023-04-09T08:19:53.090Z,101091.72
2023-04-09T08:22:20.093Z,101095.97
2023-04-09T08:24:52.944Z,101088.97
2023-04-09T08:27:20.422Z,101089.63
2023-04-09T08:29:47.636Z,101081.59
2023-04-09T08:32:14.887Z,101084.94
2023-04-09T08:34:42.110Z,101082.81
2023-04-09T08:37:09.117Z,101084.50
2023-04-09T08:39:36.755Z,101079.38
2023-04-09T08:42:07.232Z,101087.16
2023-04-09T08:44:34.397Z,101088.69
2023-04-09T08:47:02.687Z,101083.78
2023-04-09T08:49:29.718Z,101088.31
2023-04-09T08:51:57.084Z,101079.38
2023-04-09T08:54:26.763Z,101078.69
2023-04-09T08:56:53.848Z,101085.28
2023-04-09T08:59:21.213Z,101076.81
2023-04-09T09:01:54.200Z,101085.63
2023-04-09T09:04:21.659Z,101082.31
2023-04-09T09:06:48.702Z,101087.75
2023-04-09T09:09:17.626Z,101093.25
2023-04-09T09:11:51.025Z,101079.34
2023-04-09T09:14:19.886Z,101097.66
2023-04-09T09:16:56.185Z,101097.97
2023-04-09T09:19:26.646Z,101100.31
2023-04-09T09:22:04.910Z,101088.94
2023-04-09T09:24:33.981Z,101104.13
2023-04-09T09:27:02.546Z,101105.97
2023-04-09T09:29:29.814Z,101110.09
2023-04-09T09:31:57.012Z,101106.72
2023-04-09T09:34:25.430Z,101113.16
2023-04-09T09:36:52.740Z,101099.91
2023-04-09T09:39:20.139Z,101112.59
2023-04-09T09:41:48.868Z,101108.47
2023-04-09T09:44:33.197Z,101109.03
2023-04-09T09:47:03.548Z,101098.44
2023-04-09T09:49:30.789Z,101104.91
2023-04-09T09:52:02.985Z,101098.75
2023-04-09T09:54:39.953Z,101103.19
2023-04-09T09:57:10.752Z,101097.03
2023-04-09T09:59:40.640Z,101102.19
2023-04-09T10:02:20.026Z,101099.00
2023-04-09T10:04:53.794Z,101094.97
2023-04-09T10:07:22.383Z,101098.34
2023-04-09T10:09:56.705Z,101091.72
2023-04-09T10:12:25.064Z,101093.59
2023-04-09T10:14:53.157Z,101098.47
2023-04-09T10:17:21.781Z,101096.91
2023-04-09T10:20:12.909Z,101096.34
2023-04-09T10:22:43.505Z,101094.03
2023-04-09T10:25:10.850Z,101093.47
2023-04-09T10:27:37.816Z,101089.00
2023-04-09T10:30:10.338Z,101089.53
2023-04-09T10:32:37.462Z,101094.56
2023-04-09T10:35:05.158Z,101089.31
2023-04-09T10:37:32.301Z,101089.09
2023-04-09T10:39:59.348Z,101088.81
2023-04-09T10:42:42.089Z,101074.84
2023-04-09T10:45:11.561Z,101085.75
2023-04-09T10:47:41.554Z,101083.94
2023-04-09T10:50:25.796Z,101073.69
2023-04-09T10:52:56.427Z,101080.63
2023-04-09T10:55:39.947Z,101086.34
2023-04-09T10:58:13.596Z,101084.81
2023-04-09T11:00:44.058Z,101086.78
2023-04-09T11:03:24.039Z,101085.03
2023-04-09T11:05:56.852Z,101080.31
2023-04-09T11:08:23.995Z,101079.69
2023-04-09T11:10:53.393Z,101073.47
2023-04-09T11:13:21.899Z,101070.94
2023-04-09T11:15:49.083Z,101077.50
2023-04-09T11:18:30.914Z,101075.47
2023-04-09T11:21:03.844Z,101080.13
2023-04-09T11:23:32.924Z,101071.81
2023-04-09T11:26:00.139Z,101079.38
2023-04-09T11:28:27.429Z,101072.47
2023-04-09T11:30:54.420Z,101070.00
2023-04-09T11:33:21.613Z,101078.69
2023-04-09T11:35:49.154Z,101077.03
2023-04-09T11:38:16.237Z,101074.63
2023-04-09T11:40:51.516Z,101079.50
2023-04-09T11:43:20.862Z,101068.91
2023-04-09T11:45:48.704Z,101080.06
2023-04-09T11:48:18.489Z,101070.44
2023-04-09T11:50:47.486Z,101065.97
2023-04-09T11:53:22.829Z,101061.50
2023-04-09T11:55:54.276Z,101063.34
2023-04-09T11:58:26.648Z,101061.50
2023-04-09T12:01:03.920Z,101064.19
2023-04-09T12:03:33.152Z,101069.31
2023-04-09T12:06:02.825Z,101057.06
2023-04-09T12:08:31.317Z,101058.63
2023-04-09T12:11:12.149Z,101054.56
2023-04-09T12:13:45.656Z,101049.19
2023-04-09T12:16:13.829Z,101056.25
2023-04-09T12:18:41.259Z,101058.34
2023-04-09T12:21:08.385Z,101046.91
2023-04-09T12:23:35.630Z,101049.00
2023-04-09T12:26:02.684Z,101043.78
2023-04-09T12:28:29.880Z,101048.47
2023-04-09T12:30:58.305Z,101047.25
2023-04-09T12:33:25.382Z,101046.13
2023-04-09T12:35:52.366Z,101045.16
2023-04-09T12:38:19.384Z,101037.72
2023-04-09T12:40:46.731Z,101028.94
2023-04-09T12:43:13.693Z,101037.06
2023-04-09T12:45:40.714Z,101031.78
2023-04-09T12:48:07.792Z,101029.19
2023-04-09T12:50:34.855Z,101027.44
2023-04-09T12:53:01.856Z,101031.72
2023-04-09T12:55:29.003Z,101016.47
2023-04-09T12:57:56.140Z,101020.16
2023-04-09T13:00:23.285Z,101021.59
2023-04-09T13:02:52.741Z,101020.56
2023-04-09T13:05:19.993Z,101028.13
2023-04-09T13:07:46.981Z,101019.25
2023-04-09T13:10:13.984Z,101020.41
2023-04-09T13:12:41.218Z,101014.91
2023-04-09T13:15:08.446Z,101017.44
2023-04-09T13:17:35.648Z,101016.13
2023-04-09T13:20:03.772Z,101012.91
2023-04-09T13:22:31.024Z,101017.69
2023-04-09T13:24:58.035Z,101021.16
2023-04-09T13:27:25.116Z,101018.31
2023-04-09T13:29:52.124Z,101029.78
2023-04-09T13:32:21.108Z,101033.28
2023-04-09T13:34:48.200Z,101035.00
2023-04-09T13:37:15.782Z,101022.53
2023-04-09T13:39:44.300Z,101039.72
2023-04-09T13:42:14.051Z,101029.91
2023-04-09T13:44:44.620Z,101041.78
2023-04-09T13:47:13.585Z,101038.28
2023-04-09T13:49:41.402Z,101037.31
2023-04-09T13:52:09.514Z,101040.19
2023-04-09T13:54:37.289Z,101041.91
2023-04-09T13:57:04.552Z,101032.00
2023-04-09T13:59:31.536Z,101034.31
2023-04-09T14:01:58.742Z,101038.53
2023-04-09T14:04:26.081Z,101044.66
2023-04-09T14:06:53.151Z,101036.75
2023-04-09T14:09:20.325Z,101032.38
2023-04-09T14:11:47.341Z,101027.38
2023-04-09T14:14:14.332Z,101032.13
2023-04-09T14:16:41.470Z,101034.44
2023-04-09T14:19:10.106Z,101031.81
2023-04-09T14:21:37.280Z,101028.19
2023-04-09T14:24:04.399Z,101026.34
2023-04-09T14:26:31.634Z,101024.16
2023-04-09T14:28:58.593Z,101017.59
2023-04-09T14:31:25.569Z,101005.41
2023-04-09T14:33:52.624Z,101016.41
2023-04-09T14:36:19.590Z,101015.34
2023-04-09T14:38:48.480Z,101014.97
2023-04-09T14:41:16.519Z,101010.34
2023-04-09T14:43:43.520Z,101007.06
2023-04-09T14:46:12.203Z,101002.16
2023-04-09T14:48:40.015Z,100992.59
2023-04-09T14:51:11.088Z,100998.03
2023-04-09T14:53:38.608Z,100993.72
2023-04-09T14:56:06.658Z,100997.88
2023-04-09T14:58:33.730Z,100998.72
2023-04-09T15:01:00.802Z,100998.25
2023-04-09T15:03:28.160Z,100994.47
2023-04-09T15:05:55.553Z,100992.25
2023-04-09T15:08:23.660Z,100995.63
2023-04-09T15:10:51.263Z,100995.63
2023-04-09T15:13:18.399Z,100990.19
2023-04-09T15:15:45.515Z,100989.03
2023-04-09T15:18:12.594Z,100987.50
2023-04-09T15:20:40.502Z,100993.84
2023-04-09T15:23:07.547Z,100988.47
2023-04-09T15:25:34.561Z,100987.66
2023-04-09T15:28:03.236Z,100986.56
2023-04-09T15:30:30.695Z,100988.19
2023-04-09T15:32:58.145Z,100984.84
2023-04-09T15:35:29.103Z,100987.56
2023-04-09T15:37:57.088Z,100982.19
2023-04-09T15:40:24.224Z,100984.09
2023-04-09T15:42:51.324Z,100994.38
2023-04-09T15:45:18.447Z,100992.81
2023-04-09T15:47:46.211Z,100997.16
2023-04-09T15:50:14.154Z,101000.31
2023-04-09T15:52:41.232Z,101005.84
2023-04-09T15:55:09.160Z,101000.63
2023-04-09T15:57:36.505Z,100997.63
2023-04-09T16:00:03.904Z,100998.78
2023-04-09T16:02:30.981Z,100998.16
2023-04-09T16:04:58.081Z,100993.69
2023-04-09T16:07:25.178Z,101000.91
2023-04-09T16:09:52.322Z,100999.94
2023-04-09T16:12:19.268Z,100995.75
2023-04-09T16:14:46.339Z,101000.31
2023-04-09T16:17:13.296Z,101000.38
2023-04-09T16:19:40.330Z,100998.13
2023-04-09T16:22:07.507Z,101005.81
2023-04-09T16:24:34.576Z,101013.59
2023-04-09T16:27:01.625Z,101009.06
2023-04-09T16:29:28.634Z,101009.28
2023-04-09T16:31:57.557Z,101005.63
2023-04-09T16:34:25.004Z,101017.25
2023-04-09T16:36:52.021Z,101012.66
2023-04-09T16:39:19.921Z,101016.38
2023-04-09T16:41:47.017Z,101015.22
2023-04-09T16:44:14.027Z,101013.25
2023-04-09T16:46:41.054Z,101019.53
2023-04-09T16:49:08.137Z,101016.13
2023-04-09T16:51:35.270Z,101015.66
2023-04-09T16:54:02.344Z,101017.28
2023-04-09T16:56:29.336Z,101019.81
2023-04-09T16:58:56.340Z,101022.47
2023-04-09T17:01:23.435Z,101026.84
2023-04-09T17:03:50.729Z,101030.38
2023-04-09T17:06:18.088Z,101030.69
2023-04-09T17:08:45.876Z,101027.25
2023-04-09T17:11:17.212Z,101031.53
2023-04-09T17:13:44.272Z,101032.47
2023-04-09T17:16:11.921Z,101030.47
2023-04-09T17:18:39.274Z,101029.53
2023-04-09T17:21:07.054Z,101034.84
2023-04-09T17:23:34.149Z,101037.25
2023-04-09T17:26:02.293Z,101036.28
2023-04-09T17:28:29.510Z,101041.53
2023-04-09T17:30:56.587Z,101034.56
2023-04-09T17:33:23.646Z,101041.84
2023-04-09T17:35:50.903Z,101044.34
2023-04-09T17:38:21.289Z,101036.25
2023-04-09T17:40:48.842Z,101048.59
2023-04-09T17:43:15.870Z,101049.97
2023-04-09T17:45:43.288Z,101054.59
2023-04-09T17:48:10.859Z,101057.16
2023-04-09T17:50:39.111Z,101056.25
2023-04-09T17:53:06.238Z,101058.84
2023-04-09T17:55:33.249Z,101062.63
2023-04-09T17:58:00.382Z,101068.69
2023-04-09T18:00:27.583Z,101071.47
2023-04-09T18:02:54.927Z,101077.81
2023-04-09T18:05:23.038Z,101079.75
2023-04-09T18:07:50.831Z,101083.38
2023-04-09T18:10:18.670Z,101081.81
2023-04-09T18:12:45.845Z,101080.16
2023-04-09T18:15:12.874Z,101083.56
2023-04-09T18:17:39.897Z,101097.56
2023-04-09T18:20:07.591Z,101106.19
2023-04-09T18:22:35.194Z,101107.75
2023-04-09T18:25:02.449Z,101106.13
2023-04-09T18:27:29.468Z,101101.09
2023-04-09T18:29:56.533Z,101105.63
2023-04-09T18:32:23.768Z,101110.44
2023-04-09T18:34:52.135Z,101109.63
2023-04-09T18:37:20.772Z,101114.97
2023-04-09T18:39:47.999Z,101122.88
2023-04-09T18:42:15.012Z,101106.69
2023-04-09T18:44:42.456Z,101118.59
2023-04-09T18:47:11.141Z,101122.66
2023-04-09T18:49:38.192Z,101108.38
2023-04-09T18:52:09.340Z,101111.97
2023-04-09T18:54:37.288Z,101114.69
2023-04-09T18:57:04.561Z,101116.41
2023-04-09T18:59:34.750Z,101107.84
2023-04-09T19:02:05.866Z,101111.16
2023-04-09T19:04:39.990Z,101113.44
2023-04-09T19:07:07.542Z,101114.53
2023-04-09T19:09:37.148Z,101114.63
2023-04-09T19:12:04.839Z,101114.59
2023-04-09T19:14:31.811Z,101111.63
2023-04-09T19:16:59.706Z,101106.78
2023-04-09T19:19:27.485Z,101106.00
2023-04-09T19:21:54.660Z,101112.97
2023-04-09T19:24:21.674Z,101116.22
2023-04-09T19:26:50.858Z,101117.41
2023-04-09T19:29:17.838Z,101115.41
2023-04-09T19:31:46.035Z,101118.53
2023-04-09T19:34:13.490Z,101111.63
2023-04-09T19:36:40.796Z,101124.00
2023-04-09T19:39:08.543Z,101115.00
2023-04-09T19:41:35.835Z,101122.66
2023-04-09T19:44:03.358Z,101111.81
2023-04-09T19:46:30.563Z,101113.75
2023-04-09T19:48:57.686Z,101101.59
2023-04-09T19:51:24.631Z,101101.09
2023-04-09T19:53:51.789Z,101091.53
2023-04-09T19:56:19.009Z,101105.94
2023-04-09T19:58:46.051Z,101110.56
2023-04-09T20:01:13.247Z,101097.31
2023-04-09T20:03:40.783Z,101100.38
2023-04-09T20:06:09.998Z,101105.69
2023-04-09T20:08:38.080Z,101113.16
2023-04-09T20:11:05.919Z,101098.75
2023-04-09T20:13:33.384Z,101113.88
2023-04-09T20:16:01.612Z,101102.97
2023-04-09T20:18:28.842Z,101106.88
2023-04-09T20:20:56.504Z,101105.44
2023-04-09T20:23:23.497Z,101099.59
2023-04-09T20:25:56.838Z,101101.53
2023-04-09T20:28:24.008Z,101111.81
2023-04-09T20:30:51.230Z,101105.38
2023-04-09T20:33:18.706Z,101101.63
2023-04-09T20:35:45.937Z,101111.16
2023-04-09T20:38:13.154Z,101109.44
2023-04-09T20:40:40.512Z,101110.88
2023-04-09T20:43:07.516Z,101104.31
2023-04-09T20:45:34.648Z,101113.94
2023-04-09T20:48:02.428Z,101105.38
2023-04-09T20:50:31.111Z,101111.44
2023-04-09T20:52:58.990Z,101109.28
2023-04-09T20:55:26.594Z,101104.53
2023-04-09T20:57:56.670Z,101115.47
2023-04-09T21:00:24.246Z,101113.53
2023-04-09T21:02:51.613Z,101112.03
2023-04-09T21:05:23.557Z,101103.72
2023-04-09T21:07:52.494Z,101104.56
2023-04-09T21:10:20.044Z,101104.69
2023-04-09T21:12:47.099Z,101102.13
2023-04-09T21:15:14.229Z,101097.81
2023-04-09T21:17:41.546Z,101099.84
2023-04-09T21:20:09.331Z,101107.16
2023-04-09T21:22:36.369Z,101096.53
2023-04-09T21:25:03.706Z,101106.31
2023-04-09T21:27:31.271Z,101108.13
2023-04-09T21:29:58.811Z,101099.84
2023-04-09T21:32:25.882Z,101100.66
2023-04-09T21:34:53.812Z,101105.34
2023-04-09T21:37:20.818Z,101100.81
2023-04-09T21:39:48.902Z,101105.50
2023-04-09T21:42:15.997Z,101103.91
2023-04-09T21:44:42.998Z,101104.19
2023-04-09T21:47:12.205Z,101100.72
2023-04-09T21:49:40.562Z,101105.69
2023-04-09T21:52:14.473Z,101111.84
2023-04-09T21:54:43.328Z,101100.03
2023-04-09T21:57:11.400Z,101107.81
2023-04-09T21:59:38.687Z,101110.41
2023-04-09T22:02:06.063Z,101106.44
2023-04-09T22:04:35.229Z,101106.84
2023-04-09T22:07:03.369Z,101100.44
2023-04-09T22:09:31.610Z,101106.69
2023-04-09T22:11:59.732Z,101109.66
2023-04-09T22:14:29.534Z,101109.72
2023-04-09T22:16:58.344Z,101107.22
2023-04-09T22:19:26.354Z,101113.34
2023-04-09T22:21:53.815Z,101106.94
2023-04-09T22:24:27.022Z,101109.94
2023-04-09T22:26:54.248Z,101103.38
2023-04-09T22:29:21.383Z,101112.13
2023-04-09T22:31:48.398Z,101119.16
2023-04-09T22:34:21.531Z,101114.88
2023-04-09T22:36:49.250Z,101112.00
2023-04-09T22:39:16.662Z,101102.50
2023-04-09T22:41:43.970Z,101109.44
2023-04-09T22:44:10.999Z,101108.28
2023-04-09T22:46:38.175Z,101110.72
2023-04-09T22:49:06.361Z,101106.38
2023-04-09T22:51:34.674Z,101108.19
2023-04-09T22:54:02.284Z,101101.75
2023-04-09T22:56:31.825Z,101108.84
2023-04-09T22:58:59.209Z,101111.03
2023-04-09T23:01:27.194Z,101105.16
2023-04-09T23:03:54.640Z,101112.63
2023-04-09T23:06:22.647Z,101107.03
2023-04-09T23:08:50.628Z,101105.06
2023-04-09T23:11:17.893Z,101114.63
2023-04-09T23:13:44.966Z,101105.50
2023-04-09T23:16:12.005Z,101102.56
2023-04-09T23:18:39.349Z,101104.88
2023-04-09T23:21:08.014Z,101095.69
2023-04-09T23:23:36.366Z,101101.56
2023-04-09T23:26:04.362Z,101102.06
2023-04-09T23:28:31.608Z,101096.19
2023-04-09T23:30:58.588Z,101098.38
2023-04-09T23:33:25.579Z,101098.03
2023-04-09T23:35:52.647Z,101093.84
2023-04-09T23:38:19.903Z,101089.53
2023-04-09T23:40:48.547Z,101090.59
2023-04-09T23:43:15.629Z,101092.88
2023-04-09T23:45:44.027Z,101091.34
2023-04-09T23:48:12.476Z,101085.91
2023-04-09T23:50:41.506Z,101087.09
2023-04-09T23:53:09.050Z,101087.25
2023-04-09T23:55:41.178Z,101090.44
2023-04-09T23:58:09.595Z,101097.56
